Cooma Visitors Centre, New South Wales

4:47 AM EST on August 30, 2014 (GMT +1000)
Cooma NSW | Change Station
CLOSE
Current Station
Personal Weather Station
Location: Cooma, NEW SOUTH WALES
Elevation: 2694 ft
Nearby Weather Stations

Elev 2694 ft 36.21 °S, 149.13 °E | Updated 2 minutes ago

Scattered Clouds
Scattered Clouds
36.4 °F
Feels Like 33 °F
N
4.0
Wind Variable Wind from WSW
Gusts 8.0 mph

Today
High -- | Low -- °F
--% Chance of Precip.
Yesterday
High -- | Low -- °F
Precip. -- in
6:27 AM 5:41 PM
Waxing Crescent, 16% visible
Pressure 30.33 in
Visibility 6.2 miles
Clouds Scattered Clouds 1500 ft
Scattered Clouds 2300 ft
Windchill 33 °F
Dew Point 34 °F
Humidity 93%
Rainfall 0.00 in
Snow Depth Not available.
UV 0.0 out of 12
Pollen Not available.
Air Quality Not available.
Flu Activity Not available.
METAR YCOM 291700Z AUTO 23004KT 9999 // SCT015 SCT023 02/02 Q1027

More Conditions Fewer Conditions

Pressure 30.33 in
Visibility 6.2 miles
Clouds Scattered Clouds 1500 ft
Scattered Clouds 2300 ft
Windchill 33 °F
Dew Point 34 °F
Humidity 93%
Rainfall 0.00 in
Snow Depth Not available.
UV 0.0 out of 12
Pollen Not available.
Air Quality Not available.
Flu Activity Not available.
METAR YCOM 291700Z AUTO 23004KT 9999 // SCT015 SCT023 02/02 Q1027

More Conditions Fewer Conditions

10-Day Weather Forecast

Almanac

Astronomy

Aug. 30, 2014 Rise Set
Actual Time 6:27 AM EST 5:41 PM EST
Civil Twilight 6:01 AM EST 6:07 PM EST
Nautical Twilight 5:31 AM EST 6:37 PM EST
Astronomical Twilight 5:01 AM EST 7:07 PM EST
Moon 8:37 AM EST (8/30) 10:01 PM EST (8/30)
Length of Visible Light 12h 06m
Length of Day
11h 14m
Tomorrow will be 2m 10s longer.
Waxing Crescent, 16% of the Moon is Illuminated
Aug 29
Waxing Crescent
Sep 2
First Quarter
Sep 8
Full
Sep 15
Last Quarter
Sep 24
New

Yesterday's Extremes

Country Highs Country Lows

Community

WunderPhotos

Upload Photos

1,748,314 photos uploaded!

Nearby

Snow Depth

Not available.

Earthquake Activity

City Distance Mag. Time & Date
No recent earthquake activity has been reported nearby.
Minimum magnitude displayed is 2.5.

Coastal Water Temperatures

Place Temperature
No Stations Reporting

Nearby Weather Stations